Time;durP1;ratioP1;P1;durP2;ratioP2;P2;SDS_P1;SDS_P2;PMS_P1;PMS_P2;Temp;Humidity;BMP_temperature;BMP_pressure;BME280_temperature;BME280_humidity;BME280_pressure;Samples;Min_cycle;Max_cycle;Signal;HPM_P1;HPM_P2
2022/09/28 00:01:41;;;;;;;;;;;;;;;-142.75;100.00;76154.97;5055459;28;19913;-68
2022/09/28 00:04:06;;;;;;;;;;;;;;;-142.75;100.00;76160.88;5055353;28;19971;-67
2022/09/28 00:06:31;;;;;;;;;;;;;;;-142.75;100.00;76176.63;5055197;28;19913;-67
2022/09/28 00:08:57;;;;;;;;;;;;;;;-142.75;100.00;76178.59;5053799;28;19923;-67
2022/09/28 00:11:23;;;;;;;;;;;;;;;-142.75;100.00;76180.56;5055249;28;20305;-67
2022/09/28 00:13:52;;;;;;;;;;;;;;;-142.75;100.00;76174.66;5053871;28;19912;-67
2022/09/28 00:16:18;;;;;;;;;;;;;;;-142.75;100.00;76178.59;5055119;28;20406;-67
2022/09/28 00:18:44;;;;;;;;;;;;;;;-142.75;100.00;76180.56;5054847;28;19952;-67
2022/09/28 00:21:11;;;;;;;;;;;;;;;-142.75;100.00;76182.53;5053718;28;19956;-67
2022/09/28 00:24:19;;;;;;;;;;;;;;;-142.75;100.00;76190.41;5053591;28;20394;-67
2022/09/28 00:26:26;;;;;;;;;;;;;;;-142.75;100.00;76194.34;5049107;28;19913;-67
2022/09/28 00:28:52;;;;;;;;;;;;;;;-142.75;100.00;76184.50;5053458;28;19913;-67
2022/09/28 00:31:17;;;;;;;;;;;;;;;-142.75;100.00;76188.44;5054938;28;19920;-67
2022/09/28 00:33:43;;;;;;;;;;;;;;;-142.75;100.00;76176.63;5054742;28;20294;-68
2022/09/28 00:36:08;;;;;;;;;;;;;;;-142.75;100.00;76174.66;5054724;28;19912;-67
2022/09/28 00:38:33;;;;;;;;;;;;;;;-142.75;100.00;76176.63;5054415;28;19916;-67
2022/09/28 00:40:59;;;;;;;;;;;;;;;-142.75;100.00;76174.66;5053354;28;19917;-67
2022/09/28 00:43:25;;;;;;;;;;;;;;;-142.75;100.00;76172.69;5054652;28;19917;-67
2022/09/28 00:45:57;;;;;;;;;;;;;;;-142.75;100.00;76164.81;5054136;28;20419;-67
2022/09/28 00:48:26;;;;;;;;;;;;;;;-142.75;100.00;76174.66;5052931;28;20378;-67
2022/09/28 00:50:51;;;;;;;;;;;;;;;-142.75;100.00;76182.53;5054542;28;19913;-67
2022/09/28 00:53:19;;;;;;;;;;;;;;;-142.75;100.00;76184.50;5053500;28;19967;-67
2022/09/28 00:55:47;;;;;;;;;;;;;;;-142.75;100.00;76206.13;5054231;28;19928;-69
2022/09/28 00:58:15;;;;;;;;;;;;;;;-142.75;100.00;76221.88;5052798;28;19913;-69
2022/09/28 01:00:40;;;;;;;;;;;;;;;-142.75;100.00;76221.88;5054256;28;19944;-69
2022/09/28 01:03:06;;;;;;;;;;;;;;;-142.75;100.00;76231.72;5054223;28;19913;-67
2022/09/28 01:05:33;;;;;;;;;;;;;;;-142.75;100.00;76245.50;5052874;28;20018;-67
2022/09/28 01:08:00;;;;;;;;;;;;;;;-142.75;100.00;76255.34;5053873;28;20425;-70
2022/09/28 01:10:26;;;;;;;;;;;;;;;-142.75;100.00;76235.66;5054150;28;19916;-68
2022/09/28 01:12:53;;;;;;;;;;;;;;;-142.75;100.00;76227.78;5054104;28;19913;-68
2022/09/28 01:15:20;;;;;;;;;;;;;;;-142.75;100.00;76227.78;5053970;28;20366;-67
2022/09/28 01:18:04;;;;;;;;;;;;;;;-142.75;100.00;76221.88;5053659;28;20340;-69
2022/09/28 01:20:38;;;;;;;;;;;;;;;-142.75;100.00;76200.25;5053856;28;19978;-67
2022/09/28 01:23:05;;;;;;;;;;;;;;;-142.75;100.00;76202.19;5053644;28;19913;-70
2022/09/28 01:25:49;;;;;;;;;;;;;;;-142.75;100.00;76206.13;5070113;28;19964;-68
2022/09/28 01:28:16;;;;;;;;;;;;;;;-142.75;100.00;76196.31;5073069;28;20015;-68
2022/09/28 01:30:48;;;;;;;;;;;;;;;-142.75;100.00;76196.31;5073597;28;19913;-67
2022/09/28 01:33:22;;;;;;;;;;;;;;;-142.75;100.00;76178.59;5073468;28;19912;-68
2022/09/28 01:35:52;;;;;;;;;;;;;;;-142.75;100.00;76182.53;5072067;28;19917;-67
2022/09/28 01:38:22;;;;;;;;;;;;;;;-142.75;100.00;76170.72;5071885;28;19912;-68
2022/09/28 01:40:48;;;;;;;;;;;;;;;-142.75;100.00;76172.69;5037433;23;19926;-69
2022/09/28 01:43:16;;;;;;;;;;;;;;;-142.75;100.00;76172.69;5012167;28;19918;-70
2022/09/28 01:45:53;;;;;;;;;;;;;;;-142.75;100.00;76172.69;5011951;28;19913;-70
2022/09/28 01:48:22;;;;;;;;;;;;;;;-142.75;100.00;76168.75;5011696;28;19914;-69
2022/09/28 01:50:49;;;;;;;;;;;;;;;-142.75;100.00;76172.69;4995519;28;19920;-69
2022/09/28 01:53:40;;;;;;;;;;;;;;;-142.75;100.00;76160.88;5013626;28;19967;-70
2022/09/28 01:56:10;;;;;;;;;;;;;;;-142.75;100.00;76158.91;5013276;28;19918;-70
2022/09/28 01:58:39;;;;;;;;;;;;;;;-142.75;100.00;76154.97;5013122;28;19960;-70
2022/09/28 02:01:08;;;;;;;;;;;;;;;-142.75;100.00;76156.94;5011944;28;19921;-70
2022/09/28 02:03:43;;;;;;;;;;;;;;;-142.75;100.00;76147.09;5013501;28;19936;-70
2022/09/28 02:06:13;;;;;;;;;;;;;;;-142.75;100.00;76160.88;4995748;28;19964;-70
2022/09/28 02:09:13;;;;;;;;;;;;;;;-142.75;100.00;76149.06;5013184;28;19914;-70
2022/09/28 02:11:42;;;;;;;;;;;;;;;-142.75;100.00;76162.84;4936586;29;19918;-70
2022/09/28 02:14:10;;;;;;;;;;;;;;;-142.75;100.00;76160.88;5002044;28;19960;-70
2022/09/28 02:16:39;;;;;;;;;;;;;;;-142.75;100.00;76162.84;5012911;28;20012;-69
2022/09/28 02:19:05;;;;;;;;;;;;;;;-142.75;100.00;76166.78;5013090;28;20004;-70
2022/09/28 02:21:37;;;;;;;;;;;;;;;-142.75;100.00;76172.69;5013124;28;19921;-70
2022/09/28 02:24:22;;;;;;;;;;;;;;;-142.75;100.00;76172.69;5013193;28;19953;-70
2022/09/28 02:26:48;;;;;;;;;;;;;;;-142.75;100.00;76194.34;4984632;28;19914;-70
2022/09/28 02:29:14;;;;;;;;;;;;;;;-142.75;100.00;76182.53;5012947;28;19921;-70
2022/09/28 02:31:39;;;;;;;;;;;;;;;-142.75;100.00;76174.66;5013014;28;19924;-70
2022/09/28 02:34:05;;;;;;;;;;;;;;;-142.75;100.00;76178.59;5012959;28;19921;-70
2022/09/28 02:36:31;;;;;;;;;;;;;;;-142.75;100.00;76176.63;5012831;28;19914;-70
2022/09/28 02:38:57;;;;;;;;;;;;;;;-142.75;100.00;76184.50;5012507;28;19917;-70
2022/09/28 02:41:40;;;;;;;;;;;;;;;-142.75;100.00;76186.47;5012733;28;19921;-70
2022/09/28 02:44:18;;;;;;;;;;;;;;;-142.75;100.00;76172.69;5012933;28;19913;-69
2022/09/28 02:47:02;;;;;;;;;;;;;;;-142.75;100.00;76176.63;5012558;28;19920;-70
2022/09/28 02:49:40;;;;;;;;;;;;;;;-142.75;100.00;76172.69;5012679;28;19919;-69
2022/09/28 02:52:14;;;;;;;;;;;;;;;-142.75;100.00;76178.59;4995009;28;19924;-70
2022/09/28 02:55:02;;;;;;;;;;;;;;;-142.75;100.00;76172.69;4994987;28;19918;-70
2022/09/28 02:57:33;;;;;;;;;;;;;;;-142.75;100.00;76186.47;5012401;28;19957;-70
2022/09/28 03:00:09;;;;;;;;;;;;;;;-142.75;100.00;76186.47;5012475;28;19971;-69
2022/09/28 03:02:37;;;;;;;;;;;;;;;-142.75;100.00;76180.56;5012589;28;19914;-69
2022/09/28 03:05:11;;;;;;;;;;;;;;;-142.75;100.00;76178.59;5012569;28;19952;-70
2022/09/28 03:07:44;;;;;;;;;;;;;;;-142.75;100.00;76176.63;5012127;28;20288;-70
2022/09/28 03:10:15;;;;;;;;;;;;;;;-142.75;100.00;76172.69;5012423;28;19921;-73
2022/09/28 03:12:41;;;;;;;;;;;;;;;-142.75;100.00;76184.50;5012547;28;19920;-70
2022/09/28 03:15:12;;;;;;;;;;;;;;;-142.75;100.00;76188.44;5012460;28;19913;-70
2022/09/28 03:17:37;;;;;;;;;;;;;;;-142.75;100.00;76196.31;5012141;28;19913;-69
2022/09/28 03:20:03;;;;;;;;;;;;;;;-142.75;100.00;76188.44;5012160;28;19925;-69
2022/09/28 03:22:28;;;;;;;;;;;;;;;-142.75;100.00;76200.25;5012287;28;19920;-70
2022/09/28 03:24:53;;;;;;;;;;;;;;;-142.75;100.00;76178.59;4994676;28;19914;-70
2022/09/28 03:27:19;;;;;;;;;;;;;;;-142.75;100.00;76174.66;5011929;28;19913;-70
2022/09/28 03:29:44;;;;;;;;;;;;;;;-142.75;100.00;76174.66;5012207;28;19971;-69
2022/09/28 03:32:09;;;;;;;;;;;;;;;-142.75;100.00;76166.78;5012300;28;20345;-69
2022/09/28 03:34:34;;;;;;;;;;;;;;;-142.75;100.00;76160.88;4994606;28;19920;-69
2022/09/28 03:36:59;;;;;;;;;;;;;;;-142.75;100.00;76151.03;5011923;28;19972;-70
2022/09/28 03:39:25;;;;;;;;;;;;;;;-142.75;100.00;76145.13;4994328;28;19922;-69
2022/09/28 03:41:50;;;;;;;;;;;;;;;-142.75;100.00;76143.16;5012170;28;19918;-69
2022/09/28 03:44:15;;;;;;;;;;;;;;;-142.75;100.00;76145.13;5012136;28;19921;-70
2022/09/28 03:46:40;;;;;;;;;;;;;;;-142.75;100.00;76143.16;5011846;28;19913;-69
2022/09/28 03:49:05;;;;;;;;;;;;;;;-142.75;100.00;76137.25;5012072;28;19921;-70
2022/09/28 03:51:31;;;;;;;;;;;;;;;-142.75;100.00;76135.28;5012117;28;20044;-69
2022/09/28 03:53:56;;;;;;;;;;;;;;;-142.75;100.00;76164.81;5012063;28;19985;-70
2022/09/28 03:56:21;;;;;;;;;;;;;;;-142.75;100.00;76178.59;4994362;28;19914;-70
2022/09/28 03:58:46;;;;;;;;;;;;;;;-142.75;100.00;76180.56;4994119;28;19917;-69
2022/09/28 04:01:12;;;;;;;;;;;;;;;-142.75;100.00;76184.50;5011845;28;19918;-70
2022/09/28 04:03:38;;;;;;;;;;;;;;;-142.75;100.00;76172.69;5012284;28;20358;-69
2022/09/28 04:06:03;;;;;;;;;;;;;;;-142.75;100.00;76182.53;5011942;28;19913;-70
2022/09/28 04:08:28;;;;;;;;;;;;;;;-142.75;100.00;76186.47;5011561;28;19913;-69
2022/09/28 04:10:57;;;;;;;;;;;;;;;-142.75;100.00;76180.56;5011884;28;19913;-70
2022/09/28 04:13:22;;;;;;;;;;;;;;;-142.75;100.00;76190.41;5011857;28;20000;-70
2022/09/28 04:15:51;;;;;;;;;;;;;;;-142.75;100.00;76227.78;5011779;28;20374;-69
2022/09/28 04:18:17;;;;;;;;;;;;;;;-142.75;100.00;76200.25;4993987;28;19914;-69
2022/09/28 04:20:44;;;;;;;;;;;;;;;-142.75;100.00;76188.44;5013680;28;19926;-70
2022/09/28 04:23:10;;;;;;;;;;;;;;;-142.75;100.00;76170.72;5015266;28;19924;-70
2022/09/28 04:25:35;;;;;;;;;;;;;;;-142.75;100.00;76174.66;5015213;28;19914;-70
2022/09/28 04:30:45;;;;;;;;;;;;;;;-142.75;100.00;76180.56;5015500;28;19967;-69
2022/09/28 04:33:10;;;;;;;;;;;;;;;-142.75;100.00;76178.59;5015151;28;20013;-70
2022/09/28 04:35:35;;;;;;;;;;;;;;;-142.75;100.00;76168.75;5015093;28;20004;-70
2022/09/28 04:38:01;;;;;;;;;;;;;;;-142.75;100.00;76186.47;4997060;28;19959;-70
2022/09/28 04:40:26;;;;;;;;;;;;;;;-142.75;100.00;76184.50;5012274;28;20195;-70
2022/09/28 04:42:52;;;;;;;;;;;;;;;-142.75;100.00;76182.53;5012252;28;20302;-70
2022/09/28 04:45:17;;;;;;;;;;;;;;;-142.75;100.00;76166.78;5014882;28;20026;-70
2022/09/28 04:47:42;;;;;;;;;;;;;;;-142.75;100.00;76156.94;5014345;28;19914;-70
2022/09/28 04:50:08;;;;;;;;;;;;;;;-142.75;100.00;76153.00;4997088;28;20004;-70
2022/09/28 04:52:34;;;;;;;;;;;;;;;-142.75;100.00;76164.81;5014630;28;20389;-70
2022/09/28 04:54:59;;;;;;;;;;;;;;;-142.75;100.00;76164.81;5014430;28;20326;-70
2022/09/28 04:57:25;;;;;;;;;;;;;;;-142.75;100.00;76162.84;5014401;28;19959;-70
2022/09/28 04:59:50;;;;;;;;;;;;;;;-142.75;100.00;76160.88;5014525;28;19924;-70
2022/09/28 05:02:15;;;;;;;;;;;;;;;-142.75;100.00;76156.94;5014345;28;20371;-70
2022/09/28 05:04:41;;;;;;;;;;;;;;;-142.75;100.00;76141.19;5014229;28;19972;-70
2022/09/28 05:07:06;;;;;;;;;;;;;;;-142.75;100.00;76151.03;5013956;28;19913;-70
2022/09/28 05:09:31;;;;;;;;;;;;;;;-142.75;100.00;76143.16;4996711;28;19913;-70
2022/09/28 05:11:57;;;;;;;;;;;;;;;-142.75;100.00;76141.19;5014452;28;19964;-70
2022/09/28 05:14:23;;;;;;;;;;;;;;;-142.75;100.00;76133.31;5014392;28;20000;-70
2022/09/28 05:16:48;;;;;;;;;;;;;;;-142.75;100.00;76135.28;5014077;28;19961;-70
2022/09/28 05:19:13;;;;;;;;;;;;;;;-142.75;100.00;76129.38;5014201;28;19953;-70
2022/09/28 05:21:39;;;;;;;;;;;;;;;-142.75;100.00;76141.19;5014182;28;20090;-70
2022/09/28 05:24:06;;;;;;;;;;;;;;;-142.75;100.00;76141.19;5014119;28;19914;-70
2022/09/28 05:26:31;;;;;;;;;;;;;;;-142.75;100.00;76141.19;5013997;28;20283;-70
2022/09/28 05:28:57;;;;;;;;;;;;;;;-142.75;100.00;76141.19;4996324;28;19914;-70
2022/09/28 05:31:22;;;;;;;;;;;;;;;-142.75;100.00;76139.22;4995376;28;20371;-70
2022/09/28 05:33:47;;;;;;;;;;;;;;;-142.75;100.00;76141.19;5014031;28;19913;-70
2022/09/28 05:36:13;;;;;;;;;;;;;;;-142.75;100.00;76135.28;5011346;28;19913;-69
2022/09/28 05:38:38;;;;;;;;;;;;;;;-142.75;100.00;76125.44;4994918;28;20004;-70
2022/09/28 05:41:03;;;;;;;;;;;;;;;-142.75;100.00;76121.50;5003795;28;19968;-70
2022/09/28 05:43:29;;;;;;;;;;;;;;;-142.75;100.00;76117.56;5012099;28;19913;-70
2022/09/28 05:45:54;;;;;;;;;;;;;;;-142.75;100.00;76129.38;5013730;28;19940;-70
2022/09/28 05:48:19;;;;;;;;;;;;;;;-142.75;100.00;76125.44;5028828;28;19932;-70
2022/09/28 05:50:49;;;;;;;;;;;;;;;-142.75;100.00;76131.34;5012851;28;19921;-69
2022/09/28 05:53:14;;;;;;;;;;;;;;;-142.75;100.00;76129.38;5013631;28;19967;-70
2022/09/28 05:55:39;;;;;;;;;;;;;;;-142.75;100.00;76121.50;5013809;28;19917;-70
2022/09/28 05:58:05;;;;;;;;;;;;;;;-142.75;100.00;76125.44;5013399;28;19945;-70
2022/09/28 06:00:31;;;;;;;;;;;;;;;-142.75;100.00;76117.56;5013480;28;19925;-70
2022/09/28 06:02:57;;;;;;;;;;;;;;;-142.75;100.00;76099.84;5013473;28;19914;-70
2022/09/28 06:05:23;;;;;;;;;;;;;;;-142.75;100.00;76090.00;5013437;28;19920;-70
2022/09/28 06:07:48;;;;;;;;;;;;;;;-142.75;100.00;76080.16;5012977;28;20379;-70
2022/09/28 06:10:14;;;;;;;;;;;;;;;-142.75;100.00;76093.94;5013334;28;19920;-69
2022/09/28 06:12:40;;;;;;;;;;;;;;;-142.75;100.00;76080.16;4995654;28;19923;-70
2022/09/28 06:15:05;;;;;;;;;;;;;;;-142.75;100.00;76078.19;4996037;28;20008;-70
2022/09/28 06:17:30;;;;;;;;;;;;;;;-142.75;100.00;76074.25;5012873;28;19917;-70
2022/09/28 06:19:55;;;;;;;;;;;;;;;-142.75;100.00;76080.16;5011439;28;20387;-70
2022/09/28 06:22:21;;;;;;;;;;;;;;;-142.75;100.00;76072.31;5013011;28;19940;-70
2022/09/28 06:24:46;;;;;;;;;;;;;;;-142.75;100.00;76062.47;4995465;28;19940;-70
2022/09/28 06:27:11;;;;;;;;;;;;;;;-142.75;100.00;76056.56;5012736;28;19936;-70
2022/09/28 06:29:36;;;;;;;;;;;;;;;-142.75;100.00;76070.34;5013033;28;19914;-70
2022/09/28 06:32:01;;;;;;;;;;;;;;;-142.75;100.00;76076.22;5013053;28;19914;-69
2022/09/28 06:34:29;;;;;;;;;;;;;;;-142.75;100.00;76078.19;5012904;28;19959;-70
2022/09/28 06:36:54;;;;;;;;;;;;;;;-142.75;100.00;76095.91;5012486;28;19913;-70
2022/09/28 06:39:19;;;;;;;;;;;;;;;-142.75;100.00;76105.75;5012688;28;19925;-70
2022/09/28 06:41:44;;;;;;;;;;;;;;;-142.75;100.00;76097.88;5013006;28;19917;-69
2022/09/28 06:44:09;;;;;;;;;;;;;;;-142.75;100.00;76091.97;5012500;28;19924;-69
2022/09/28 06:46:36;;;;;;;;;;;;;;;-142.75;100.00;76078.19;5012507;28;19913;-70
2022/09/28 06:49:03;;;;;;;;;;;;;;;-142.75;100.00;76070.34;5005239;28;19933;-69
2022/09/28 06:51:28;;;;;;;;;;;;;;;-142.75;100.00;76032.94;4993037;28;19921;-69
2022/09/28 06:53:55;;;;;;;;;;;;;;;-142.75;100.00;75989.63;4992710;28;19926;-69
2022/09/28 06:56:20;;;;;;;;;;;;;;;-142.75;100.00;75944.38;4998638;28;19960;-68
2022/09/28 06:58:46;;;;;;;;;;;;;;;-142.75;100.00;75912.88;4990279;28;20379;-69
2022/09/28 07:01:11;;;;;;;;;;;;;;;-142.75;100.00;75908.94;5011927;28;19924;-69
2022/09/28 07:03:36;;;;;;;;;;;;;;;-142.75;100.00;75885.31;5012062;28;19917;-69
2022/09/28 07:06:03;;;;;;;;;;;;;;;-142.75;100.00;75871.53;4993504;28;20367;-69
2022/09/28 07:08:28;;;;;;;;;;;;;;;-142.75;100.00;75885.31;5011885;28;19917;-69
2022/09/28 07:10:56;;;;;;;;;;;;;;;-142.75;100.00;75899.09;5011957;28;19913;-69
2022/09/28 07:13:23;;;;;;;;;;;;;;;-142.75;100.00;75905.00;5009833;28;20324;-68
2022/09/28 07:15:52;;;;;;;;;;;;;;;-142.75;100.00;75916.81;5008997;28;19922;-69
2022/09/28 07:18:17;;;;;;;;;;;;;;;-142.75;100.00;75930.59;5011624;28;19952;-69
2022/09/28 07:20:42;;;;;;;;;;;;;;;-142.75;100.00;75924.69;5011258;28;19960;-70
2022/09/28 07:23:08;;;;;;;;;;;;;;;-142.75;100.00;75918.78;5010746;28;19914;-69
2022/09/28 07:25:35;;;;;;;;;;;;;;;-142.75;100.00;75906.97;5011998;28;19913;-69
2022/09/28 07:28:01;;;;;;;;;;;;;;;-142.75;100.00;75867.59;5011698;28;20394;-69
2022/09/28 07:30:27;;;;;;;;;;;;;;;-142.75;100.00;75845.97;5011337;28;19964;-69
2022/09/28 07:32:53;;;;;;;;;;;;;;;-142.75;100.00;75826.28;5011865;28;20414;-69
2022/09/28 07:35:18;;;;;;;;;;;;;;;-142.75;100.00;75849.91;5011818;28;19913;-69
2022/09/28 07:37:43;;;;;;;;;;;;;;;-142.75;100.00;75842.03;4990978;28;19913;-69
2022/09/28 07:42:52;;;;;;;;;;;;;;;-142.75;100.00;75798.72;5030172;22;19932;-68
2022/09/28 07:45:19;;;;;;;;;;;;;;;-142.75;100.00;75782.97;5010008;28;19921;-70
2022/09/28 07:47:45;;;;;;;;;;;;;;;-142.75;100.00;75751.50;5005073;28;19913;-69
2022/09/28 07:50:10;;;;;;;;;;;;;;;-142.75;100.00;75727.88;5008686;28;19989;-68
2022/09/28 07:52:35;;;;;;;;;;;;;;;-142.75;100.00;75702.28;5010386;28;19920;-68
2022/09/28 07:55:00;;;;;;;;;;;;;;;-142.75;100.00;75700.31;5004567;28;19913;-69
2022/09/28 07:57:26;;;;;;;;;;;;;;;-142.75;100.00;75666.88;4999422;28;19921;-69
2022/09/28 07:59:52;;;;;;;;;;;;;;;-142.75;100.00;75617.66;4990765;28;20384;-69
2022/09/28 08:02:18;;;;;;;;;;;;;;;-142.75;100.00;75629.47;4996813;28;19973;-71
2022/09/28 08:04:44;;;;;;;;;;;;;;;-142.75;100.00;75592.09;4995525;28;19917;-71
2022/09/28 08:07:10;;;;;;;;;;;;;;;-142.75;100.00;75601.91;4991109;28;19918;-69
2022/09/28 08:09:35;;;;;;;;;;;;;;;-142.75;100.00;75601.91;4994622;28;19973;-69
2022/09/28 08:12:02;;;;;;;;;;;;;;;-142.75;100.00;75566.50;4994399;28;20391;-70
2022/09/28 08:14:28;;;;;;;;;;;;;;;-142.75;100.00;75546.81;4995297;28;19925;-70
2022/09/28 08:16:53;;;;;;;;;;;;;;;-142.75;100.00;75546.81;4995602;28;19914;-70
2022/09/28 08:19:18;;;;;;;;;;;;;;;-142.75;100.00;75533.03;4995502;28;19921;-70
2022/09/28 08:21:44;;;;;;;;;;;;;;;-142.75;100.00;75489.75;4995506;28;19961;-70
2022/09/28 08:24:09;;;;;;;;;;;;;;;-142.75;100.00;75491.72;4995201;28;20417;-70
2022/09/28 08:26:36;;;;;;;;;;;;;;;-142.75;100.00;75507.47;4993092;28;20314;-67
2022/09/28 08:29:02;;;;;;;;;;;;;;;-142.75;100.00;75503.53;4995259;28;19969;-70
2022/09/28 08:31:27;;;;;;;;;;;;;;;-142.75;100.00;75454.31;4994803;28;19918;-69
2022/09/28 08:33:53;;;;;;;;;;;;;;;-142.75;100.00;75414.97;4994983;28;20391;-68
2022/09/28 08:36:19;;;;;;;;;;;;;;;-142.75;100.00;75405.13;4993949;28;19992;-70
2022/09/28 08:38:44;;;;;;;;;;;;;;;-142.75;100.00;75393.31;4993742;28;19937;-69
2022/09/28 08:41:22;;;;;;;;;;;;;;;-142.75;100.00;75418.91;4995443;28;19917;-69
2022/09/28 08:44:06;;;;;;;;;;;;;;;-142.75;100.00;75420.88;4993227;28;20008;-68
2022/09/28 08:46:36;;;;;;;;;;;;;;;-142.75;100.00;75389.38;4993923;28;20380;-68
2022/09/28 08:49:10;;;;;;;;;;;;;;;-142.75;100.00;75357.91;4982437;28;19925;-69
2022/09/28 08:51:54;;;;;;;;;;;;;;;-142.75;100.00;75381.50;4993447;28;19953;-69
2022/09/28 08:54:35;;;;;;;;;;;;;;;-142.75;100.00;75393.31;4994631;28;19913;-69
2022/09/28 08:57:04;;;;;;;;;;;;;;;-142.75;100.00;75353.97;4991734;28;19914;-69
2022/09/28 08:59:56;;;;;;;;;;;;;;;-142.75;100.00;75310.66;4992487;28;19925;-70
2022/09/28 09:02:26;;;;;;;;;;;;;;;-142.75;100.00;75279.19;4990766;28;19920;-69
2022/09/28 09:04:51;;;;;;;;;;;;;;;-142.75;100.00;75243.75;4992460;28;19914;-69
2022/09/28 09:07:20;;;;;;;;;;;;;;;-142.75;100.00;75220.16;4993265;28;20376;-70
2022/09/28 09:09:57;;;;;;;;;;;;;;;-142.75;100.00;75212.28;4994970;28;19917;-69
2022/09/28 09:12:35;;;;;;;;;;;;;;;-142.75;100.00;75206.38;4994809;28;19917;-69
2022/09/28 09:15:09;;;;;;;;;;;;;;;-142.75;100.00;75235.88;4994904;28;19968;-69
2022/09/28 09:17:43;;;;;;;;;;;;;;;-142.75;100.00;75245.72;4994400;28;19918;-70
2022/09/28 09:20:11;;;;;;;;;;;;;;;-142.75;100.00;75285.09;4993495;28;19918;-70
2022/09/28 09:22:46;;;;;;;;;;;;;;;-142.75;100.00;75346.09;4994556;28;19914;-69
2022/09/28 09:25:20;;;;;;;;;;;;;;;-142.75;100.00;75324.44;4993489;28;20391;-70
2022/09/28 09:28:06;;;;;;;;;;;;;;;-142.75;100.00;75298.84;4993039;28;20638;-69
2022/09/28 09:30:41;;;;;;;;;;;;;;;-142.75;100.00;75233.91;4994570;28;19913;-71
2022/09/28 09:33:22;;;;;;;;;;;;;;;-142.75;100.00;75182.75;4994382;28;20025;-69
2022/09/28 09:36:02;;;;;;;;;;;;;;;-142.75;100.00;75135.53;4994452;28;19914;-70
2022/09/28 09:38:43;;;;;;;;;;;;;;;-142.75;100.00;75165.03;4993792;28;20451;-69
2022/09/28 09:41:08;;;;;;;;;;;;;;;-142.75;100.00;75131.59;4994500;28;19933;-70
2022/09/28 09:43:49;;;;;;;;;;;;;;;-142.75;100.00;75106.00;4994092;28;20320;-69
2022/09/28 09:46:17;;;;;;;;;;;;;;;-142.75;100.00;75125.69;4994373;28;19989;-68
2022/09/28 09:48:51;;;;;;;;;;;;;;;-142.75;100.00;75106.00;4992724;28;19936;-68
2022/09/28 09:51:21;;;;;;;;;;;;;;;-142.75;100.00;75088.31;4993902;28;19918;-68
2022/09/28 09:53:58;;;;;;;;;;;;;;;-142.75;100.00;75082.41;4993937;28;19914;-67
2022/09/28 09:56:33;;;;;;;;;;;;;;;-142.75;100.00;75050.91;4993989;28;19921;-67
2022/09/28 09:59:03;;;;;;;;;;;;;;;-142.75;100.00;75045.00;4993587;28;20343;-68
2022/09/28 10:01:33;;;;;;;;;;;;;;;-142.75;100.00;75060.75;4993118;28;19930;-67
2022/09/28 10:03:59;;;;;;;;;;;;;;;-142.75;100.00;75037.16;4991388;28;19914;-68
2022/09/28 10:06:29;;;;;;;;;;;;;;;-142.75;100.00;75019.44;4992070;28;20000;-68
2022/09/28 10:09:04;;;;;;;;;;;;;;;-142.75;100.00;74970.25;4993546;28;19928;-68
2022/09/28 10:11:36;;;;;;;;;;;;;;;-142.75;100.00;74954.50;4993695;28;20380;-68
2022/09/28 10:14:02;;;;;;;;;;;;;;;-142.75;100.00;74948.59;4993683;28;19914;-68
2022/09/28 10:16:29;;;;;;;;;;;;;;;-142.75;100.00;74936.78;4993400;28;20347;-67
2022/09/28 10:18:54;;;;;;;;;;;;;;;-142.75;100.00;74968.28;4992145;28;19918;-68
2022/09/28 10:21:21;;;;;;;;;;;;;;;-142.75;100.00;74944.66;4992744;28;19917;-67
2022/09/28 10:23:48;;;;;;;;;;;;;;;-142.75;100.00;75001.72;4993003;28;19936;-68
2022/09/28 10:26:22;;;;;;;;;;;;;;;-142.75;100.00;75043.03;4992562;28;19923;-67
2022/09/28 10:28:53;;;;;;;;;;;;;;;-142.75;100.00;75046.97;4992714;28;20000;-68
2022/09/28 10:31:33;;;;;;;;;;;;;;;-142.75;100.00;75111.91;4992934;28;20339;-68
2022/09/28 10:33:58;;;;;;;;;;;;;;;-142.75;100.00;75082.41;4991267;28;20426;-68
2022/09/28 10:36:25;;;;;;;;;;;;;;;-142.75;100.00;75035.19;4992785;28;19941;-67
2022/09/28 10:38:50;;;;;;;;;;;;;;;-142.75;100.00;74995.81;4989818;28;19932;-68
2022/09/28 10:41:16;;;;;;;;;;;;;;;-142.75;100.00;75013.53;4992379;28;20370;-67
2022/09/28 10:44:04;;;;;;;;;;;;;;;-142.75;100.00;75017.47;4992271;28;19929;-68
2022/09/28 10:46:31;;;;;;;;;;;;;;;-142.75;100.00;75003.69;4991054;28;19960;-67
2022/09/28 10:49:01;;;;;;;;;;;;;;;-142.75;100.00;75013.53;4992441;28;19922;-67
2022/09/28 10:51:40;;;;;;;;;;;;;;;-142.75;100.00;75050.91;4991504;28;19918;-68
2022/09/28 10:54:12;;;;;;;;;;;;;;;-142.75;100.00;75094.22;4991289;28;19972;-68
2022/09/28 10:56:38;;;;;;;;;;;;;;;-142.75;100.00;75135.53;4990925;28;19948;-67
2022/09/28 10:59:29;;;;;;;;;;;;;;;-142.75;100.00;75172.91;4991226;28;19922;-68
2022/09/28 11:02:03;;;;;;;;;;;;;;;-142.75;100.00;75231.94;4990368;28;19921;-68
2022/09/28 11:04:32;;;;;;;;;;;;;;;-142.75;100.00;75218.19;4990618;28;19913;-68
2022/09/28 11:07:00;;;;;;;;;;;;;;;-142.75;100.00;75111.91;4992051;28;20372;-67
2022/09/28 11:09:27;;;;;;;;;;;;;;;-142.75;100.00;75031.25;4992381;28;19933;-68
2022/09/28 11:11:53;;;;;;;;;;;;;;;-142.75;100.00;74980.06;4992146;28;19914;-67
2022/09/28 11:14:24;;;;;;;;;;;;;;;-142.75;100.00;74930.88;4989558;28;19926;-68
2022/09/28 11:17:09;;;;;;;;;;;;;;;-142.75;100.00;74940.72;4988771;28;19914;-68
2022/09/28 11:19:35;;;;;;;;;;;;;;;-142.75;100.00;74871.84;4992152;28;20024;-68
2022/09/28 11:22:00;;;;;;;;;;;;;;;-142.75;100.00;74864.00;4992386;28;20024;-68
2022/09/28 11:24:25;;;;;;;;;;;;;;;-142.75;99.18;74799.06;4992605;28;19917;-68
2022/09/28 11:26:58;;;;;;;;;;;;;;;-142.75;93.90;74810.88;4990852;28;19909;-68
2022/09/28 11:29:35;;;;;;;;;;;;;;;-142.75;91.70;74810.88;4994273;28;20044;-68
2022/09/28 11:32:02;;;;;;;;;;;;;;;-142.75;89.54;74779.38;4996774;28;19999;-68
2022/09/28 11:34:41;;;;;;;;;;;;;;;-142.75;90.59;74779.38;4996732;28;19962;-68
2022/09/28 11:37:45;;;;;;;;;;;;;;;-142.75;85.40;74757.75;4996044;28;19910;-67
2022/09/28 11:40:27;;;;;;;;;;;;;;;-142.75;83.58;74718.38;4974315;28;19914;-68
2022/09/28 11:43:01;;;;;;;;;;;;;;;-142.75;83.96;74720.34;4958487;28;20388;-68
2022/09/28 11:45:50;;;;;;;;;;;;;;;-142.75;85.36;74755.78;4988350;28;19964;-67
2022/09/28 11:48:17;;;;;;;;;;;;;;;-142.75;87.64;74732.16;4994358;28;20020;-68
2022/09/28 11:51:03;;;;;;;;;;;;;;;-142.75;84.41;74730.19;4995803;28;19913;-68
2022/09/28 11:53:40;;;;;;;;;;;;;;;-142.75;86.79;74755.78;4993257;28;19910;-68
2022/09/28 11:56:15;;;;;;;;;;;;;;;-142.75;81.84;74785.28;5000430;28;19930;-68
2022/09/28 11:59:02;;;;;;;;;;;;;;;-142.75;86.28;74826.59;4995821;28;20019;-68
2022/09/28 12:01:34;;;;;;;;;;;;;;;-142.75;86.34;74856.13;4996284;28;19914;-68
2022/09/28 12:04:04;;;;;;;;;;;;;;;-142.75;93.66;74905.31;4995324;28;19917;-67
2022/09/28 12:06:36;;;;;;;;;;;;;;;-142.75;94.33;74997.78;4992188;28;19914;-67
2022/09/28 12:09:08;;;;;;;;;;;;;;;-142.75;100.00;75082.41;4993880;28;20368;-66
2022/09/28 12:11:35;;;;;;;;;;;;;;;-142.75;100.00;75121.75;4996078;28;19917;-66
2022/09/28 12:14:02;;;;;;;;;;;;;;;-142.75;100.00;75111.91;4996376;28;19910;-68
2022/09/28 12:16:27;;;;;;;;;;;;;;;-142.75;100.00;75086.34;4995956;28;19917;-67
2022/09/28 12:19:16;;;;;;;;;;;;;;;-142.75;100.00;75113.88;4994494;28;19910;-67
2022/09/28 12:21:46;;;;;;;;;;;;;;;-142.75;100.00;75115.84;4991529;28;19914;-68
2022/09/28 12:24:16;;;;;;;;;;;;;;;-142.75;100.00;75165.03;4995884;28;20355;-64
2022/09/28 12:26:53;;;;;;;;;;;;;;;-142.75;100.00;75125.69;4995710;28;19910;-66
2022/09/28 12:29:25;;;;;;;;;;;;;;;-142.75;100.00;75151.28;4994598;28;19909;-67
2022/09/28 12:32:06;;;;;;;;;;;;;;;-142.75;100.00;75188.66;4995762;28;19916;-67
2022/09/28 12:34:32;;;;;;;;;;;;;;;-142.75;100.00;75229.97;4995906;28;19917;-67